sensor_id;sensor_type;location;lat;lon;timestamp;P1;durP1;ratioP1;P2;durP2;ratioP2
8102;SDS011;4094;49.948;11.574;2023-03-14T00:00:44;5.70;;;5.37;;
8102;SDS011;4094;49.948;11.574;2023-03-14T00:03:13;5.50;;;5.23;;
8102;SDS011;4094;49.948;11.574;2023-03-14T00:05:42;5.57;;;5.27;;
8102;SDS011;4094;49.948;11.574;2023-03-14T00:08:11;5.53;;;5.23;;
8102;SDS011;4094;49.948;11.574;2023-03-14T00:10:41;6.10;;;5.70;;
8102;SDS011;4094;49.948;11.574;2023-03-14T00:13:11;6.00;;;5.60;;
8102;SDS011;4094;49.948;11.574;2023-03-14T00:15:41;5.70;;;5.37;;
8102;SDS011;4094;49.948;11.574;2023-03-14T00:18:10;5.60;;;5.30;;
8102;SDS011;4094;49.948;11.574;2023-03-14T00:20:39;5.80;;;5.50;;
8102;SDS011;4094;49.948;11.574;2023-03-14T00:23:08;5.33;;;5.13;;
8102;SDS011;4094;49.948;11.574;2023-03-14T00:25:38;5.50;;;5.20;;
8102;SDS011;4094;49.948;11.574;2023-03-14T00:28:07;5.50;;;5.20;;
8102;SDS011;4094;49.948;11.574;2023-03-14T00:30:38;4.87;;;4.67;;
8102;SDS011;4094;49.948;11.574;2023-03-14T00:33:09;5.70;;;5.40;;
8102;SDS011;4094;49.948;11.574;2023-03-14T00:35:38;5.23;;;5.03;;
8102;SDS011;4094;49.948;11.574;2023-03-14T00:38:07;5.50;;;5.30;;
8102;SDS011;4094;49.948;11.574;2023-03-14T00:40:38;5.47;;;5.17;;
8102;SDS011;4094;49.948;11.574;2023-03-14T00:43:07;5.67;;;5.37;;
8102;SDS011;4094;49.948;11.574;2023-03-14T00:45:38;5.43;;;5.20;;
8102;SDS011;4094;49.948;11.574;2023-03-14T00:48:07;5.57;;;5.27;;
8102;SDS011;4094;49.948;11.574;2023-03-14T00:50:36;5.53;;;5.23;;
8102;SDS011;4094;49.948;11.574;2023-03-14T00:53:07;5.50;;;5.20;;
8102;SDS011;4094;49.948;11.574;2023-03-14T00:55:37;5.27;;;5.00;;
8102;SDS011;4094;49.948;11.574;2023-03-14T00:58:06;5.70;;;5.30;;
8102;SDS011;4094;49.948;11.574;2023-03-14T01:00:36;5.60;;;5.30;;
8102;SDS011;4094;49.948;11.574;2023-03-14T01:03:06;5.50;;;5.20;;
8102;SDS011;4094;49.948;11.574;2023-03-14T01:05:37;5.40;;;5.17;;
8102;SDS011;4094;49.948;11.574;2023-03-14T01:08:06;5.27;;;5.07;;
8102;SDS011;4094;49.948;11.574;2023-03-14T01:10:37;5.40;;;5.20;;
8102;SDS011;4094;49.948;11.574;2023-03-14T01:13:07;5.77;;;5.47;;
8102;SDS011;4094;49.948;11.574;2023-03-14T01:15:38;5.40;;;5.20;;
8102;SDS011;4094;49.948;11.574;2023-03-14T01:18:10;5.60;;;5.30;;
8102;SDS011;4094;49.948;11.574;2023-03-14T01:20:39;5.70;;;5.40;;
8102;SDS011;4094;49.948;11.574;2023-03-14T01:23:08;5.50;;;5.10;;
8102;SDS011;4094;49.948;11.574;2023-03-14T01:25:40;5.63;;;5.33;;
8102;SDS011;4094;49.948;11.574;2023-03-14T01:28:10;5.30;;;5.10;;
8102;SDS011;4094;49.948;11.574;2023-03-14T01:30:41;5.70;;;5.40;;
8102;SDS011;4094;49.948;11.574;2023-03-14T01:33:12;4.60;;;4.40;;
8102;SDS011;4094;49.948;11.574;2023-03-14T01:35:44;5.10;;;4.90;;
8102;SDS011;4094;49.948;11.574;2023-03-14T01:38:13;5.23;;;5.03;;
8102;SDS011;4094;49.948;11.574;2023-03-14T01:40:43;5.13;;;4.93;;
8102;SDS011;4094;49.948;11.574;2023-03-14T01:43:14;5.50;;;5.20;;
8102;SDS011;4094;49.948;11.574;2023-03-14T01:45:55;5.33;;;4.93;;
8102;SDS011;4094;49.948;11.574;2023-03-14T01:48:44;5.10;;;4.90;;
8102;SDS011;4094;49.948;11.574;2023-03-14T01:51:16;5.30;;;5.10;;
8102;SDS011;4094;49.948;11.574;2023-03-14T01:53:48;5.03;;;4.73;;
8102;SDS011;4094;49.948;11.574;2023-03-14T01:56:19;5.33;;;5.13;;
8102;SDS011;4094;49.948;11.574;2023-03-14T01:58:48;4.77;;;4.57;;
8102;SDS011;4094;49.948;11.574;2023-03-14T02:01:21;5.63;;;5.33;;
8102;SDS011;4094;49.948;11.574;2023-03-14T02:03:54;5.37;;;5.07;;
8102;SDS011;4094;49.948;11.574;2023-03-14T02:06:27;5.13;;;4.93;;
8102;SDS011;4094;49.948;11.574;2023-03-14T02:09:01;5.33;;;5.03;;
8102;SDS011;4094;49.948;11.574;2023-03-14T02:11:33;4.93;;;4.73;;
8102;SDS011;4094;49.948;11.574;2023-03-14T02:14:07;5.07;;;4.77;;
8102;SDS011;4094;49.948;11.574;2023-03-14T02:17:02;5.10;;;4.90;;
8102;SDS011;4094;49.948;11.574;2023-03-14T02:20:03;5.47;;;5.20;;
8102;SDS011;4094;49.948;11.574;2023-03-14T02:22:41;5.57;;;5.27;;
8102;SDS011;4094;49.948;11.574;2023-03-14T02:25:14;5.20;;;4.90;;
8102;SDS011;4094;49.948;11.574;2023-03-14T02:27:50;5.10;;;4.90;;
8102;SDS011;4094;49.948;11.574;2023-03-14T02:30:20;5.43;;;5.23;;
8102;SDS011;4094;49.948;11.574;2023-03-14T02:32:51;5.30;;;5.10;;
8102;SDS011;4094;49.948;11.574;2023-03-14T02:35:24;5.10;;;4.87;;
8102;SDS011;4094;49.948;11.574;2023-03-14T02:37:57;5.10;;;4.90;;
8102;SDS011;4094;49.948;11.574;2023-03-14T02:40:35;5.00;;;4.80;;
8102;SDS011;4094;49.948;11.574;2023-03-14T02:43:06;5.17;;;4.97;;
8102;SDS011;4094;49.948;11.574;2023-03-14T02:45:38;5.80;;;5.40;;
8102;SDS011;4094;49.948;11.574;2023-03-14T02:48:16;5.40;;;5.20;;
8102;SDS011;4094;49.948;11.574;2023-03-14T02:50:49;5.50;;;5.20;;
8102;SDS011;4094;49.948;11.574;2023-03-14T02:53:24;5.70;;;5.40;;
8102;SDS011;4094;49.948;11.574;2023-03-14T02:55:57;5.57;;;5.27;;
8102;SDS011;4094;49.948;11.574;2023-03-14T02:58:29;5.17;;;4.97;;
8102;SDS011;4094;49.948;11.574;2023-03-14T03:01:06;5.30;;;5.10;;
8102;SDS011;4094;49.948;11.574;2023-03-14T03:03:35;5.63;;;5.37;;
8102;SDS011;4094;49.948;11.574;2023-03-14T03:06:05;5.53;;;5.33;;
8102;SDS011;4094;49.948;11.574;2023-03-14T03:08:34;5.20;;;4.83;;
8102;SDS011;4094;49.948;11.574;2023-03-14T03:11:04;5.50;;;5.17;;
8102;SDS011;4094;49.948;11.574;2023-03-14T03:13:36;5.80;;;5.50;;
8102;SDS011;4094;49.948;11.574;2023-03-14T03:16:07;5.53;;;5.33;;
8102;SDS011;4094;49.948;11.574;2023-03-14T03:18:36;5.63;;;5.20;;
8102;SDS011;4094;49.948;11.574;2023-03-14T03:21:06;4.90;;;4.70;;
8102;SDS011;4094;49.948;11.574;2023-03-14T03:23:36;4.97;;;4.77;;
8102;SDS011;4094;49.948;11.574;2023-03-14T03:26:05;5.33;;;5.13;;
8102;SDS011;4094;49.948;11.574;2023-03-14T03:28:38;5.23;;;5.03;;
8102;SDS011;4094;49.948;11.574;2023-03-14T03:31:08;4.97;;;4.77;;
8102;SDS011;4094;49.948;11.574;2023-03-14T03:33:39;5.67;;;5.37;;
8102;SDS011;4094;49.948;11.574;2023-03-14T03:36:09;5.37;;;5.17;;
8102;SDS011;4094;49.948;11.574;2023-03-14T03:38:40;5.30;;;5.10;;
8102;SDS011;4094;49.948;11.574;2023-03-14T03:41:09;5.30;;;5.10;;
8102;SDS011;4094;49.948;11.574;2023-03-14T03:43:40;5.30;;;5.10;;
8102;SDS011;4094;49.948;11.574;2023-03-14T03:46:11;5.10;;;4.90;;
8102;SDS011;4094;49.948;11.574;2023-03-14T03:48:41;5.13;;;4.93;;
8102;SDS011;4094;49.948;11.574;2023-03-14T03:51:11;5.10;;;4.80;;
8102;SDS011;4094;49.948;11.574;2023-03-14T03:53:42;5.43;;;5.13;;
8102;SDS011;4094;49.948;11.574;2023-03-14T03:56:14;4.93;;;4.73;;
8102;SDS011;4094;49.948;11.574;2023-03-14T03:58:45;5.30;;;5.00;;
8102;SDS011;4094;49.948;11.574;2023-03-14T04:01:14;5.43;;;5.23;;
8102;SDS011;4094;49.948;11.574;2023-03-14T04:03:48;5.67;;;5.37;;
8102;SDS011;4094;49.948;11.574;2023-03-14T04:06:18;5.30;;;5.00;;
8102;SDS011;4094;49.948;11.574;2023-03-14T04:08:49;5.50;;;5.20;;
8102;SDS011;4094;49.948;11.574;2023-03-14T04:11:34;6.00;;;5.60;;
8102;SDS011;4094;49.948;11.574;2023-03-14T04:14:23;5.40;;;5.10;;
8102;SDS011;4094;49.948;11.574;2023-03-14T04:17:06;5.53;;;5.23;;
8102;SDS011;4094;49.948;11.574;2023-03-14T04:19:36;5.37;;;5.07;;
8102;SDS011;4094;49.948;11.574;2023-03-14T04:22:06;5.57;;;5.20;;
8102;SDS011;4094;49.948;11.574;2023-03-14T04:24:45;5.77;;;5.47;;
8102;SDS011;4094;49.948;11.574;2023-03-14T04:27:14;5.37;;;5.07;;
8102;SDS011;4094;49.948;11.574;2023-03-14T04:29:46;5.63;;;5.33;;
8102;SDS011;4094;49.948;11.574;2023-03-14T04:32:19;5.43;;;5.10;;
8102;SDS011;4094;49.948;11.574;2023-03-14T04:34:48;5.83;;;5.43;;
8102;SDS011;4094;49.948;11.574;2023-03-14T04:37:17;5.97;;;5.60;;
8102;SDS011;4094;49.948;11.574;2023-03-14T04:39:46;5.27;;;5.07;;
8102;SDS011;4094;49.948;11.574;2023-03-14T04:42:21;5.40;;;5.10;;
8102;SDS011;4094;49.948;11.574;2023-03-14T04:44:52;5.53;;;5.13;;
8102;SDS011;4094;49.948;11.574;2023-03-14T04:47:24;5.20;;;5.00;;
8102;SDS011;4094;49.948;11.574;2023-03-14T04:49:54;5.80;;;5.60;;
8102;SDS011;4094;49.948;11.574;2023-03-14T04:52:25;5.13;;;4.90;;
8102;SDS011;4094;49.948;11.574;2023-03-14T04:54:55;5.80;;;5.50;;
8102;SDS011;4094;49.948;11.574;2023-03-14T04:57:25;5.40;;;5.20;;
8102;SDS011;4094;49.948;11.574;2023-03-14T04:59:56;5.73;;;5.33;;
8102;SDS011;4094;49.948;11.574;2023-03-14T05:02:47;5.57;;;5.37;;
8102;SDS011;4094;49.948;11.574;2023-03-14T05:05:26;5.77;;;5.47;;
8102;SDS011;4094;49.948;11.574;2023-03-14T05:08:01;5.97;;;5.57;;
8102;SDS011;4094;49.948;11.574;2023-03-14T05:10:52;5.17;;;4.97;;
8102;SDS011;4094;49.948;11.574;2023-03-14T05:13:40;5.37;;;5.17;;
8102;SDS011;4094;49.948;11.574;2023-03-14T05:16:26;5.40;;;5.10;;
8102;SDS011;4094;49.948;11.574;2023-03-14T05:19:14;5.03;;;4.83;;
8102;SDS011;4094;49.948;11.574;2023-03-14T05:22:02;5.47;;;5.27;;
8102;SDS011;4094;49.948;11.574;2023-03-14T05:24:46;5.63;;;5.40;;
8102;SDS011;4094;49.948;11.574;2023-03-14T05:27:31;5.40;;;5.20;;
8102;SDS011;4094;49.948;11.574;2023-03-14T05:30:20;5.67;;;5.37;;
8102;SDS011;4094;49.948;11.574;2023-03-14T05:33:10;5.60;;;5.30;;
8102;SDS011;4094;49.948;11.574;2023-03-14T05:36:02;5.67;;;5.10;;
8102;SDS011;4094;49.948;11.574;2023-03-14T05:39:00;5.37;;;5.17;;
8102;SDS011;4094;49.948;11.574;2023-03-14T05:41:55;5.03;;;4.83;;
8102;SDS011;4094;49.948;11.574;2023-03-14T05:44:42;6.00;;;5.60;;
8102;SDS011;4094;49.948;11.574;2023-03-14T05:47:29;5.47;;;5.17;;
8102;SDS011;4094;49.948;11.574;2023-03-14T05:50:18;5.77;;;5.43;;
8102;SDS011;4094;49.948;11.574;2023-03-14T05:53:11;5.67;;;5.37;;
8102;SDS011;4094;49.948;11.574;2023-03-14T05:55:50;5.93;;;5.63;;
8102;SDS011;4094;49.948;11.574;2023-03-14T05:58:44;5.70;;;5.43;;
8102;SDS011;4094;49.948;11.574;2023-03-14T06:01:30;5.83;;;5.53;;
8102;SDS011;4094;49.948;11.574;2023-03-14T06:04:14;5.63;;;5.33;;
8102;SDS011;4094;49.948;11.574;2023-03-14T06:06:49;5.67;;;5.37;;
8102;SDS011;4094;49.948;11.574;2023-03-14T06:09:18;5.90;;;5.50;;
8102;SDS011;4094;49.948;11.574;2023-03-14T06:11:51;5.67;;;5.33;;
8102;SDS011;4094;49.948;11.574;2023-03-14T06:14:20;5.53;;;5.23;;
8102;SDS011;4094;49.948;11.574;2023-03-14T06:16:51;5.50;;;5.20;;
8102;SDS011;4094;49.948;11.574;2023-03-14T06:19:23;5.87;;;5.63;;
8102;SDS011;4094;49.948;11.574;2023-03-14T06:21:53;5.33;;;5.13;;
8102;SDS011;4094;49.948;11.574;2023-03-14T06:24:25;5.40;;;5.20;;
8102;SDS011;4094;49.948;11.574;2023-03-14T06:26:54;5.20;;;4.90;;
8102;SDS011;4094;49.948;11.574;2023-03-14T06:29:23;5.37;;;5.17;;
8102;SDS011;4094;49.948;11.574;2023-03-14T06:31:53;5.57;;;5.37;;
8102;SDS011;4094;49.948;11.574;2023-03-14T06:34:24;5.63;;;5.33;;
8102;SDS011;4094;49.948;11.574;2023-03-14T06:36:55;6.30;;;6.00;;
8102;SDS011;4094;49.948;11.574;2023-03-14T06:39:25;5.63;;;5.33;;
8102;SDS011;4094;49.948;11.574;2023-03-14T06:42:02;5.50;;;5.20;;
8102;SDS011;4094;49.948;11.574;2023-03-14T06:44:32;5.73;;;5.47;;
8102;SDS011;4094;49.948;11.574;2023-03-14T06:47:02;6.00;;;5.60;;
8102;SDS011;4094;49.948;11.574;2023-03-14T06:49:32;5.43;;;5.13;;
8102;SDS011;4094;49.948;11.574;2023-03-14T06:52:03;5.80;;;5.50;;
8102;SDS011;4094;49.948;11.574;2023-03-14T06:54:33;5.70;;;5.40;;
8102;SDS011;4094;49.948;11.574;2023-03-14T06:57:02;5.87;;;5.57;;
8102;SDS011;4094;49.948;11.574;2023-03-14T06:59:31;5.93;;;5.63;;
8102;SDS011;4094;49.948;11.574;2023-03-14T07:02:01;5.80;;;5.50;;
8102;SDS011;4094;49.948;11.574;2023-03-14T07:04:30;5.97;;;5.57;;
8102;SDS011;4094;49.948;11.574;2023-03-14T07:07:00;5.57;;;5.30;;
8102;SDS011;4094;49.948;11.574;2023-03-14T07:09:34;5.20;;;5.00;;
8102;SDS011;4094;49.948;11.574;2023-03-14T07:12:04;5.57;;;5.27;;
8102;SDS011;4094;49.948;11.574;2023-03-14T07:14:34;5.90;;;5.33;;
8102;SDS011;4094;49.948;11.574;2023-03-14T07:17:03;5.13;;;4.83;;
8102;SDS011;4094;49.948;11.574;2023-03-14T07:19:32;5.43;;;5.13;;
8102;SDS011;4094;49.948;11.574;2023-03-14T07:22:01;5.73;;;5.33;;
8102;SDS011;4094;49.948;11.574;2023-03-14T07:24:30;6.07;;;5.77;;
8102;SDS011;4094;49.948;11.574;2023-03-14T07:27:01;6.30;;;5.90;;
8102;SDS011;4094;49.948;11.574;2023-03-14T07:29:30;5.90;;;5.60;;
8102;SDS011;4094;49.948;11.574;2023-03-14T07:32:03;6.17;;;5.63;;
8102;SDS011;4094;49.948;11.574;2023-03-14T07:34:32;5.53;;;5.23;;
8102;SDS011;4094;49.948;11.574;2023-03-14T07:37:01;5.70;;;5.37;;
8102;SDS011;4094;49.948;11.574;2023-03-14T07:39:32;5.50;;;5.20;;
8102;SDS011;4094;49.948;11.574;2023-03-14T07:42:09;5.07;;;4.77;;
8102;SDS011;4094;49.948;11.574;2023-03-14T07:44:57;5.63;;;5.33;;
8102;SDS011;4094;49.948;11.574;2023-03-14T07:47:26;5.73;;;5.33;;
8102;SDS011;4094;49.948;11.574;2023-03-14T07:49:55;5.73;;;5.33;;
8102;SDS011;4094;49.948;11.574;2023-03-14T07:52:24;6.00;;;5.60;;
8102;SDS011;4094;49.948;11.574;2023-03-14T07:54:53;5.30;;;5.00;;
8102;SDS011;4094;49.948;11.574;2023-03-14T07:57:24;6.37;;;5.87;;
8102;SDS011;4094;49.948;11.574;2023-03-14T07:59:53;5.90;;;5.50;;
8102;SDS011;4094;49.948;11.574;2023-03-14T08:02:22;5.67;;;5.37;;
8102;SDS011;4094;49.948;11.574;2023-03-14T08:04:51;5.20;;;4.90;;
8102;SDS011;4094;49.948;11.574;2023-03-14T08:07:20;5.60;;;5.30;;
8102;SDS011;4094;49.948;11.574;2023-03-14T08:09:49;5.77;;;5.47;;
8102;SDS011;4094;49.948;11.574;2023-03-14T08:12:18;5.63;;;5.30;;
8102;SDS011;4094;49.948;11.574;2023-03-14T08:14:48;5.10;;;4.83;;
8102;SDS011;4094;49.948;11.574;2023-03-14T08:17:17;5.30;;;4.90;;
8102;SDS011;4094;49.948;11.574;2023-03-14T08:19:46;5.00;;;4.73;;
8102;SDS011;4094;49.948;11.574;2023-03-14T08:22:16;5.53;;;5.13;;
8102;SDS011;4094;49.948;11.574;2023-03-14T08:24:46;5.77;;;5.37;;
8102;SDS011;4094;49.948;11.574;2023-03-14T08:27:15;5.53;;;5.23;;
8102;SDS011;4094;49.948;11.574;2023-03-14T08:29:44;5.60;;;5.20;;
8102;SDS011;4094;49.948;11.574;2023-03-14T08:32:14;5.10;;;4.80;;
8102;SDS011;4094;49.948;11.574;2023-03-14T08:34:43;5.70;;;5.20;;
8102;SDS011;4094;49.948;11.574;2023-03-14T08:37:12;5.23;;;4.87;;
8102;SDS011;4094;49.948;11.574;2023-03-14T08:39:52;4.87;;;4.53;;
8102;SDS011;4094;49.948;11.574;2023-03-14T08:42:22;5.33;;;4.93;;
8102;SDS011;4094;49.948;11.574;2023-03-14T08:44:51;5.10;;;4.80;;
8102;SDS011;4094;49.948;11.574;2023-03-14T08:47:21;5.23;;;4.93;;
8102;SDS011;4094;49.948;11.574;2023-03-14T08:49:50;5.10;;;4.70;;
8102;SDS011;4094;49.948;11.574;2023-03-14T08:52:19;4.73;;;4.43;;
8102;SDS011;4094;49.948;11.574;2023-03-14T08:54:48;5.07;;;4.73;;
8102;SDS011;4094;49.948;11.574;2023-03-14T08:57:17;5.20;;;4.90;;
8102;SDS011;4094;49.948;11.574;2023-03-14T08:59:46;5.10;;;4.77;;
8102;SDS011;4094;49.948;11.574;2023-03-14T09:02:15;5.27;;;4.97;;
8102;SDS011;4094;49.948;11.574;2023-03-14T09:04:45;4.47;;;4.23;;
8102;SDS011;4094;49.948;11.574;2023-03-14T09:07:15;4.57;;;4.27;;
8102;SDS011;4094;49.948;11.574;2023-03-14T09:09:44;5.40;;;5.10;;
8102;SDS011;4094;49.948;11.574;2023-03-14T09:12:13;5.20;;;4.80;;
8102;SDS011;4094;49.948;11.574;2023-03-14T09:14:42;4.10;;;3.90;;
8102;SDS011;4094;49.948;11.574;2023-03-14T09:17:11;4.50;;;4.20;;
8102;SDS011;4094;49.948;11.574;2023-03-14T09:19:40;5.37;;;4.50;;
8102;SDS011;4094;49.948;11.574;2023-03-14T09:22:10;4.70;;;4.40;;
8102;SDS011;4094;49.948;11.574;2023-03-14T09:24:39;4.77;;;4.40;;
8102;SDS011;4094;49.948;11.574;2023-03-14T09:27:09;4.63;;;4.37;;
8102;SDS011;4094;49.948;11.574;2023-03-14T09:29:38;5.13;;;4.83;;
8102;SDS011;4094;49.948;11.574;2023-03-14T09:32:07;4.83;;;4.20;;
8102;SDS011;4094;49.948;11.574;2023-03-14T09:34:36;5.27;;;4.97;;
8102;SDS011;4094;49.948;11.574;2023-03-14T09:37:05;5.93;;;4.70;;
8102;SDS011;4094;49.948;11.574;2023-03-14T09:39:35;5.10;;;4.70;;
8102;SDS011;4094;49.948;11.574;2023-03-14T09:42:06;4.80;;;4.43;;
8102;SDS011;4094;49.948;11.574;2023-03-14T09:44:42;4.40;;;4.17;;
8102;SDS011;4094;49.948;11.574;2023-03-14T09:47:20;4.90;;;4.60;;
8102;SDS011;4094;49.948;11.574;2023-03-14T09:49:51;4.43;;;4.03;;
8102;SDS011;4094;49.948;11.574;2023-03-14T09:52:21;5.00;;;4.60;;
8102;SDS011;4094;49.948;11.574;2023-03-14T09:54:54;5.00;;;4.70;;
8102;SDS011;4094;49.948;11.574;2023-03-14T09:57:28;4.87;;;4.57;;
8102;SDS011;4094;49.948;11.574;2023-03-14T09:59:58;4.33;;;4.13;;
8102;SDS011;4094;49.948;11.574;2023-03-14T10:02:40;4.33;;;4.03;;
8102;SDS011;4094;49.948;11.574;2023-03-14T10:05:13;5.00;;;4.73;;
8102;SDS011;4094;49.948;11.574;2023-03-14T10:07:43;4.87;;;4.47;;
8102;SDS011;4094;49.948;11.574;2023-03-14T10:10:15;4.87;;;4.57;;
8102;SDS011;4094;49.948;11.574;2023-03-14T10:12:47;4.90;;;4.60;;
8102;SDS011;4094;49.948;11.574;2023-03-14T10:15:24;4.70;;;4.40;;
8102;SDS011;4094;49.948;11.574;2023-03-14T10:17:54;4.63;;;4.33;;
8102;SDS011;4094;49.948;11.574;2023-03-14T10:20:29;4.40;;;4.20;;
8102;SDS011;4094;49.948;11.574;2023-03-14T10:23:03;5.10;;;4.90;;
8102;SDS011;4094;49.948;11.574;2023-03-14T10:25:36;5.00;;;4.70;;
8102;SDS011;4094;49.948;11.574;2023-03-14T10:28:10;4.83;;;4.53;;
8102;SDS011;4094;49.948;11.574;2023-03-14T10:30:51;4.80;;;4.50;;
8102;SDS011;4094;49.948;11.574;2023-03-14T10:33:21;4.60;;;4.37;;
8102;SDS011;4094;49.948;11.574;2023-03-14T10:35:52;5.37;;;4.93;;
8102;SDS011;4094;49.948;11.574;2023-03-14T10:38:25;5.47;;;5.17;;
8102;SDS011;4094;49.948;11.574;2023-03-14T10:40:57;4.77;;;4.57;;
8102;SDS011;4094;49.948;11.574;2023-03-14T10:43:30;5.00;;;4.70;;
8102;SDS011;4094;49.948;11.574;2023-03-14T10:46:06;5.13;;;4.83;;
8102;SDS011;4094;49.948;11.574;2023-03-14T10:48:57;4.77;;;4.47;;
8102;SDS011;4094;49.948;11.574;2023-03-14T10:51:27;4.90;;;4.60;;
8102;SDS011;4094;49.948;11.574;2023-03-14T10:53:58;4.60;;;4.30;;
8102;SDS011;4094;49.948;11.574;2023-03-14T10:56:34;5.10;;;4.70;;
8102;SDS011;4094;49.948;11.574;2023-03-14T10:59:06;4.60;;;4.30;;
8102;SDS011;4094;49.948;11.574;2023-03-14T11:01:41;4.93;;;4.63;;
8102;SDS011;4094;49.948;11.574;2023-03-14T11:04:15;5.37;;;4.97;;
8102;SDS011;4094;49.948;11.574;2023-03-14T11:06:55;5.40;;;4.90;;
8102;SDS011;4094;49.948;11.574;2023-03-14T11:09:29;5.13;;;4.83;;
8102;SDS011;4094;49.948;11.574;2023-03-14T11:12:09;5.10;;;4.80;;
8102;SDS011;4094;49.948;11.574;2023-03-14T11:14:46;5.67;;;5.27;;
8102;SDS011;4094;49.948;11.574;2023-03-14T11:17:20;5.50;;;5.20;;
8102;SDS011;4094;49.948;11.574;2023-03-14T11:19:58;5.37;;;4.87;;
8102;SDS011;4094;49.948;11.574;2023-03-14T11:22:43;4.97;;;4.67;;
8102;SDS011;4094;49.948;11.574;2023-03-14T11:25:18;5.30;;;4.90;;
8102;SDS011;4094;49.948;11.574;2023-03-14T11:27:58;4.97;;;4.60;;
8102;SDS011;4094;49.948;11.574;2023-03-14T11:30:38;5.33;;;4.90;;
8102;SDS011;4094;49.948;11.574;2023-03-14T11:33:14;5.10;;;4.90;;
8102;SDS011;4094;49.948;11.574;2023-03-14T11:35:47;4.47;;;4.17;;
8102;SDS011;4094;49.948;11.574;2023-03-14T11:38:24;4.53;;;4.30;;
8102;SDS011;4094;49.948;11.574;2023-03-14T11:40:58;4.83;;;4.53;;
8102;SDS011;4094;49.948;11.574;2023-03-14T11:43:30;5.20;;;4.90;;
8102;SDS011;4094;49.948;11.574;2023-03-14T11:46:05;4.87;;;4.60;;
8102;SDS011;4094;49.948;11.574;2023-03-14T11:48:39;4.70;;;4.50;;
8102;SDS011;4094;49.948;11.574;2023-03-14T11:51:13;5.43;;;5.03;;
8102;SDS011;4094;49.948;11.574;2023-03-14T11:53:48;4.87;;;4.47;;
8102;SDS011;4094;49.948;11.574;2023-03-14T11:56:25;5.00;;;4.70;;
8102;SDS011;4094;49.948;11.574;2023-03-14T11:59:03;5.07;;;4.73;;
8102;SDS011;4094;49.948;11.574;2023-03-14T12:01:37;5.40;;;5.10;;
8102;SDS011;4094;49.948;11.574;2023-03-14T12:04:32;4.90;;;4.63;;
8102;SDS011;4094;49.948;11.574;2023-03-14T12:07:13;5.30;;;5.00;;
8102;SDS011;4094;49.948;11.574;2023-03-14T12:09:47;4.70;;;4.40;;
8102;SDS011;4094;49.948;11.574;2023-03-14T12:12:19;5.53;;;5.13;;
8102;SDS011;4094;49.948;11.574;2023-03-14T12:14:55;5.10;;;4.80;;
8102;SDS011;4094;49.948;11.574;2023-03-14T12:17:27;5.00;;;4.77;;
8102;SDS011;4094;49.948;11.574;2023-03-14T12:20:04;4.63;;;4.37;;
8102;SDS011;4094;49.948;11.574;2023-03-14T12:22:43;5.00;;;4.60;;
8102;SDS011;4094;49.948;11.574;2023-03-14T12:25:15;5.00;;;4.70;;
8102;SDS011;4094;49.948;11.574;2023-03-14T12:30:35;5.30;;;4.90;;
8102;SDS011;4094;49.948;11.574;2023-03-14T12:33:18;4.70;;;4.40;;
8102;SDS011;4094;49.948;11.574;2023-03-14T12:39:04;4.70;;;4.50;;
8102;SDS011;4094;49.948;11.574;2023-03-14T12:41:42;4.67;;;4.37;;
8102;SDS011;4094;49.948;11.574;2023-03-14T12:50:25;6.00;;;4.50;;
8102;SDS011;4094;49.948;11.574;2023-03-14T12:53:06;3.87;;;3.67;;
8102;SDS011;4094;49.948;11.574;2023-03-14T12:55:51;3.90;;;3.70;;
8102;SDS011;4094;49.948;11.574;2023-03-14T12:58:27;4.03;;;3.83;;
8102;SDS011;4094;49.948;11.574;2023-03-14T13:01:00;4.20;;;4.00;;
8102;SDS011;4094;49.948;11.574;2023-03-14T13:03:37;4.20;;;4.00;;
8102;SDS011;4094;49.948;11.574;2023-03-14T13:06:10;4.43;;;4.23;;
8102;SDS011;4094;49.948;11.574;2023-03-14T13:08:41;4.20;;;4.00;;
8102;SDS011;4094;49.948;11.574;2023-03-14T13:11:12;4.37;;;4.17;;
8102;SDS011;4094;49.948;11.574;2023-03-14T13:13:45;4.20;;;4.00;;
8102;SDS011;4094;49.948;11.574;2023-03-14T13:16:17;4.77;;;4.57;;
8102;SDS011;4094;49.948;11.574;2023-03-14T13:18:49;4.40;;;4.20;;
8102;SDS011;4094;49.948;11.574;2023-03-14T13:21:27;4.10;;;3.90;;
8102;SDS011;4094;49.948;11.574;2023-03-14T13:24:04;4.57;;;4.30;;
8102;SDS011;4094;49.948;11.574;2023-03-14T13:26:38;4.20;;;4.00;;
8102;SDS011;4094;49.948;11.574;2023-03-14T13:29:14;4.27;;;4.07;;
8102;SDS011;4094;49.948;11.574;2023-03-14T13:31:45;4.30;;;4.10;;
8102;SDS011;4094;49.948;11.574;2023-03-14T13:34:17;4.03;;;3.83;;
8102;SDS011;4094;49.948;11.574;2023-03-14T13:36:46;5.00;;;4.60;;
8102;SDS011;4094;49.948;11.574;2023-03-14T13:39:17;4.47;;;4.27;;
8102;SDS011;4094;49.948;11.574;2023-03-14T13:41:49;4.00;;;3.80;;
8102;SDS011;4094;49.948;11.574;2023-03-14T13:44:26;4.60;;;4.40;;
8102;SDS011;4094;49.948;11.574;2023-03-14T13:46:58;4.47;;;4.27;;
8102;SDS011;4094;49.948;11.574;2023-03-14T13:49:30;4.50;;;4.30;;
8102;SDS011;4094;49.948;11.574;2023-03-14T13:52:03;4.30;;;4.07;;
8102;SDS011;4094;49.948;11.574;2023-03-14T13:54:52;4.50;;;4.20;;
8102;SDS011;4094;49.948;11.574;2023-03-14T13:57:22;4.60;;;4.40;;
8102;SDS011;4094;49.948;11.574;2023-03-14T13:59:58;4.63;;;4.43;;
8102;SDS011;4094;49.948;11.574;2023-03-14T14:02:31;4.70;;;4.50;;
8102;SDS011;4094;49.948;11.574;2023-03-14T14:05:02;4.40;;;4.20;;
8102;SDS011;4094;49.948;11.574;2023-03-14T14:07:32;4.70;;;4.50;;
8102;SDS011;4094;49.948;11.574;2023-03-14T14:10:01;4.60;;;4.40;;
8102;SDS011;4094;49.948;11.574;2023-03-14T14:12:31;4.50;;;4.30;;
8102;SDS011;4094;49.948;11.574;2023-03-14T14:15:05;4.80;;;4.60;;
8102;SDS011;4094;49.948;11.574;2023-03-14T14:17:40;4.60;;;4.40;;
8102;SDS011;4094;49.948;11.574;2023-03-14T14:20:16;4.70;;;4.50;;
8102;SDS011;4094;49.948;11.574;2023-03-14T14:22:50;4.37;;;4.17;;
8102;SDS011;4094;49.948;11.574;2023-03-14T14:25:20;5.77;;;5.47;;
8102;SDS011;4094;49.948;11.574;2023-03-14T14:27:50;4.67;;;4.40;;
8102;SDS011;4094;49.948;11.574;2023-03-14T14:30:27;4.70;;;4.50;;
8102;SDS011;4094;49.948;11.574;2023-03-14T14:33:15;4.47;;;4.27;;
8102;SDS011;4094;49.948;11.574;2023-03-14T14:35:52;4.70;;;4.50;;
8102;SDS011;4094;49.948;11.574;2023-03-14T14:38:24;5.30;;;5.10;;
8102;SDS011;4094;49.948;11.574;2023-03-14T14:40:54;4.97;;;4.77;;
8102;SDS011;4094;49.948;11.574;2023-03-14T14:43:30;5.17;;;4.87;;
8102;SDS011;4094;49.948;11.574;2023-03-14T14:46:05;4.97;;;4.73;;
8102;SDS011;4094;49.948;11.574;2023-03-14T14:48:37;4.93;;;4.73;;
8102;SDS011;4094;49.948;11.574;2023-03-14T14:51:08;5.03;;;4.83;;
8102;SDS011;4094;49.948;11.574;2023-03-14T14:53:37;4.80;;;4.60;;
8102;SDS011;4094;49.948;11.574;2023-03-14T14:56:14;4.83;;;4.63;;
8102;SDS011;4094;49.948;11.574;2023-03-14T14:58:46;5.07;;;4.87;;
8102;SDS011;4094;49.948;11.574;2023-03-14T15:01:17;4.97;;;4.77;;
8102;SDS011;4094;49.948;11.574;2023-03-14T15:03:49;5.00;;;4.80;;
8102;SDS011;4094;49.948;11.574;2023-03-14T15:06:21;4.97;;;4.77;;
8102;SDS011;4094;49.948;11.574;2023-03-14T15:08:54;5.30;;;5.10;;
8102;SDS011;4094;49.948;11.574;2023-03-14T15:11:24;5.00;;;4.80;;
8102;SDS011;4094;49.948;11.574;2023-03-14T15:13:54;4.97;;;4.77;;
8102;SDS011;4094;49.948;11.574;2023-03-14T15:16:25;4.87;;;4.67;;
8102;SDS011;4094;49.948;11.574;2023-03-14T15:18:58;5.20;;;5.00;;
8102;SDS011;4094;49.948;11.574;2023-03-14T15:21:39;4.87;;;4.67;;
8102;SDS011;4094;49.948;11.574;2023-03-14T15:24:08;4.73;;;4.53;;
8102;SDS011;4094;49.948;11.574;2023-03-14T15:26:38;4.67;;;4.47;;
8102;SDS011;4094;49.948;11.574;2023-03-14T15:29:08;5.10;;;4.90;;
8102;SDS011;4094;49.948;11.574;2023-03-14T15:31:39;5.43;;;5.23;;
8102;SDS011;4094;49.948;11.574;2023-03-14T15:34:10;5.40;;;5.20;;
8102;SDS011;4094;49.948;11.574;2023-03-14T15:36:40;5.43;;;5.17;;
8102;SDS011;4094;49.948;11.574;2023-03-14T15:39:10;5.23;;;4.90;;
8102;SDS011;4094;49.948;11.574;2023-03-14T15:41:40;5.33;;;4.93;;
8102;SDS011;4094;49.948;11.574;2023-03-14T15:44:09;5.80;;;5.50;;
8102;SDS011;4094;49.948;11.574;2023-03-14T15:46:38;5.67;;;5.47;;
8102;SDS011;4094;49.948;11.574;2023-03-14T15:49:07;5.13;;;4.93;;